createdAt,value
2023-05-02T00:02:43.506Z,3.87
2023-05-02T00:05:29.906Z,4.78
2023-05-02T00:08:15.859Z,5.25
2023-05-02T00:11:01.720Z,5.71
2023-05-02T00:13:47.476Z,5.88
2023-05-02T00:16:33.418Z,5.96
2023-05-02T00:19:19.128Z,5.93
2023-05-02T00:22:05.002Z,6.19
2023-05-02T00:24:50.735Z,5.89
2023-05-02T00:27:36.528Z,5.66
2023-05-02T00:30:24.417Z,6.04
2023-05-02T00:33:10.325Z,5.82
2023-05-02T00:35:56.128Z,6.00
2023-05-02T00:38:42.021Z,5.85
2023-05-02T00:41:27.860Z,5.56
2023-05-02T00:44:13.770Z,5.96
2023-05-02T00:46:59.659Z,6.29
2023-05-02T00:49:45.460Z,6.54
2023-05-02T00:52:31.324Z,6.34
2023-05-02T00:55:17.129Z,6.28
2023-05-02T00:58:03.137Z,6.66
2023-05-02T01:00:49.076Z,6.17
2023-05-02T01:03:34.919Z,6.76
2023-05-02T01:06:21.100Z,7.02
2023-05-02T01:09:07.260Z,7.27
2023-05-02T01:11:53.094Z,7.38
2023-05-02T01:14:38.905Z,7.81
2023-05-02T01:17:24.695Z,7.55
2023-05-02T01:20:10.708Z,7.40
2023-05-02T01:22:56.606Z,7.14
2023-05-02T01:25:42.315Z,7.09
2023-05-02T01:28:28.178Z,6.89
2023-05-02T01:31:13.981Z,6.88
2023-05-02T01:33:59.747Z,7.35
2023-05-02T01:36:45.679Z,7.70
2023-05-02T01:39:31.472Z,7.62
2023-05-02T01:42:17.455Z,8.08
2023-05-02T01:45:03.382Z,8.14
2023-05-02T01:47:49.254Z,8.78
2023-05-02T01:50:35.185Z,8.82
2023-05-02T01:53:21.128Z,8.51
2023-05-02T01:56:07.272Z,8.41
2023-05-02T01:58:53.188Z,8.38
2023-05-02T02:01:39.109Z,8.54
2023-05-02T02:04:25.451Z,8.66
2023-05-02T02:07:11.641Z,9.30
2023-05-02T02:09:57.760Z,8.55
2023-05-02T02:12:44.141Z,8.73
2023-05-02T02:15:30.043Z,8.69
2023-05-02T02:18:15.894Z,9.05
2023-05-02T02:21:01.873Z,8.62
2023-05-02T02:23:47.690Z,8.46
2023-05-02T02:26:33.774Z,7.59
2023-05-02T02:29:19.631Z,8.46
2023-05-02T02:32:05.390Z,8.00
2023-05-02T02:34:51.320Z,8.51
2023-05-02T02:37:37.099Z,8.27
2023-05-02T02:40:22.977Z,8.95
2023-05-02T02:43:08.903Z,8.56
2023-05-02T02:45:54.791Z,8.50
2023-05-02T02:48:40.706Z,8.84
2023-05-02T02:51:26.454Z,9.36
2023-05-02T02:54:25.326Z,9.17
2023-05-02T02:57:12.234Z,8.99
2023-05-02T02:59:58.133Z,9.32
2023-05-02T03:02:44.422Z,9.14
2023-05-02T03:05:30.276Z,9.14
2023-05-02T03:08:16.118Z,10.20
2023-05-02T03:11:02.031Z,9.94
2023-05-02T03:13:47.818Z,9.69
2023-05-02T03:16:33.820Z,9.81
2023-05-02T03:19:20.014Z,9.99
2023-05-02T03:22:05.858Z,9.59
2023-05-02T03:24:51.955Z,9.77
2023-05-02T03:27:37.804Z,9.85
2023-05-02T03:30:23.864Z,9.82
2023-05-02T03:33:09.821Z,10.74
2023-05-02T03:35:56.004Z,10.50
2023-05-02T03:38:41.832Z,10.23
2023-05-02T03:41:27.699Z,10.86
2023-05-02T03:44:13.552Z,11.17
2023-05-02T03:46:59.550Z,10.82
2023-05-02T03:49:47.674Z,10.61
2023-05-02T03:52:33.542Z,11.18
2023-05-02T03:55:19.410Z,11.27
2023-05-02T03:58:05.384Z,11.23
2023-05-02T04:00:51.499Z,11.76
2023-05-02T04:03:37.521Z,11.47
2023-05-02T04:06:23.632Z,11.23
2023-05-02T04:09:09.560Z,11.34
2023-05-02T04:11:55.361Z,10.77
2023-05-02T04:14:41.402Z,10.59
2023-05-02T04:17:27.374Z,11.60
2023-05-02T04:20:13.247Z,11.36
2023-05-02T04:22:59.065Z,11.10
2023-05-02T04:25:44.894Z,10.97
2023-05-02T04:28:30.797Z,11.37
2023-05-02T04:31:16.828Z,11.65
2023-05-02T04:34:02.676Z,11.16
2023-05-02T04:36:48.491Z,11.28
2023-05-02T04:39:34.508Z,10.86
2023-05-02T04:42:20.387Z,10.77
2023-05-02T04:45:06.288Z,10.24
2023-05-02T04:47:52.190Z,10.62
2023-05-02T04:50:38.246Z,10.24
2023-05-02T04:53:24.203Z,10.09
2023-05-02T04:56:10.050Z,10.05
2023-05-02T04:58:55.932Z,9.90
2023-05-02T05:01:41.819Z,9.51
2023-05-02T05:04:27.705Z,9.75
2023-05-02T05:07:13.621Z,9.45
2023-05-02T05:09:59.682Z,10.00
2023-05-02T05:12:45.719Z,9.76
2023-05-02T05:15:31.512Z,9.86
2023-05-02T05:18:17.389Z,9.88
2023-05-02T05:21:03.154Z,9.89
2023-05-02T05:23:49.085Z,9.50
2023-05-02T05:26:34.838Z,10.32
2023-05-02T05:29:20.764Z,9.73
2023-05-02T05:32:06.813Z,9.49
2023-05-02T05:34:53.098Z,10.21
2023-05-02T05:37:39.010Z,9.99
2023-05-02T05:40:24.798Z,9.86
2023-05-02T05:43:10.704Z,10.06
2023-05-02T05:45:56.683Z,9.70
2023-05-02T05:48:42.605Z,9.56
2023-05-02T05:51:28.443Z,9.72
2023-05-02T05:54:14.320Z,9.38
2023-05-02T05:57:00.145Z,9.16
2023-05-02T05:59:45.976Z,9.47
2023-05-02T06:02:32.064Z,9.33
2023-05-02T06:05:18.425Z,9.12
2023-05-02T06:08:04.333Z,9.06
2023-05-02T06:10:50.058Z,8.90
2023-05-02T06:13:35.921Z,9.53
2023-05-02T06:16:21.820Z,9.79
2023-05-02T06:19:07.777Z,9.88
2023-05-02T06:21:53.701Z,9.52
2023-05-02T06:24:39.505Z,9.73
2023-05-02T06:27:25.265Z,9.66
2023-05-02T06:30:11.139Z,9.83
2023-05-02T06:32:57.036Z,9.38
2023-05-02T06:35:43.041Z,9.93
2023-05-02T06:38:28.842Z,10.55
2023-05-02T06:41:17.292Z,10.15
2023-05-02T06:44:04.154Z,10.21
2023-05-02T06:46:50.036Z,10.47
2023-05-02T06:49:35.946Z,10.55
2023-05-02T06:52:21.796Z,10.71
2023-05-02T06:55:07.689Z,10.51
2023-05-02T06:57:53.546Z,10.15
2023-05-02T07:00:39.923Z,10.01
2023-05-02T07:03:25.736Z,10.18
2023-05-02T07:06:11.779Z,10.01
2023-05-02T07:08:57.645Z,10.40
2023-05-02T07:11:43.541Z,10.55
2023-05-02T07:14:29.355Z,10.91
2023-05-02T07:17:15.142Z,10.75
2023-05-02T07:20:01.275Z,10.80
2023-05-02T07:22:47.794Z,9.84
2023-05-02T07:25:33.651Z,9.92
2023-05-02T07:28:19.524Z,9.88
2023-05-02T07:31:05.335Z,9.76
2023-05-02T07:33:51.211Z,9.06
2023-05-02T07:36:37.111Z,9.58
2023-05-02T07:39:22.893Z,9.40
2023-05-02T07:42:08.709Z,9.55
2023-05-02T07:44:54.529Z,10.03
2023-05-02T07:47:40.634Z,9.56
2023-05-02T07:50:26.548Z,9.86
2023-05-02T07:53:12.450Z,10.15
2023-05-02T07:55:58.392Z,10.14
2023-05-02T07:58:44.289Z,10.33
2023-05-02T08:01:30.079Z,10.38
2023-05-02T08:04:16.291Z,10.82
2023-05-02T08:07:02.389Z,10.38
2023-05-02T08:09:48.253Z,10.29
2023-05-02T08:12:34.298Z,10.66
2023-05-02T08:15:20.110Z,10.41
2023-05-02T08:18:06.169Z,10.06
2023-05-02T08:20:52.178Z,9.71
2023-05-02T08:23:38.062Z,10.18
2023-05-02T08:26:24.037Z,10.07
2023-05-02T08:29:09.880Z,10.58
2023-05-02T08:31:55.806Z,10.91
2023-05-02T08:34:41.856Z,11.18
2023-05-02T08:37:27.760Z,10.88
2023-05-02T08:40:13.682Z,10.88
2023-05-02T08:42:59.793Z,10.68
2023-05-02T08:45:45.937Z,11.30
2023-05-02T08:48:32.059Z,10.68
2023-05-02T08:54:08.664Z,11.51
2023-05-02T08:56:54.603Z,11.30
2023-05-02T08:59:40.543Z,11.15
2023-05-02T09:02:26.378Z,11.12
2023-05-02T09:05:12.343Z,10.96
2023-05-02T09:07:58.139Z,11.60
2023-05-02T09:10:43.942Z,11.28
2023-05-02T09:13:29.739Z,11.00
2023-05-02T09:16:15.678Z,11.39
2023-05-02T09:19:01.929Z,11.47
2023-05-02T09:21:47.884Z,11.27
2023-05-02T09:24:33.982Z,11.63
2023-05-02T09:27:19.992Z,11.44
2023-05-02T09:30:05.639Z,12.06
2023-05-02T09:32:51.564Z,11.80
2023-05-02T09:35:37.501Z,11.96
2023-05-02T09:38:23.233Z,11.59
2023-05-02T09:41:09.069Z,11.45
2023-05-02T09:43:54.982Z,12.18
2023-05-02T09:46:40.923Z,11.75
2023-05-02T09:49:26.945Z,11.41
2023-05-02T09:52:12.816Z,11.38
2023-05-02T09:54:58.831Z,10.64
2023-05-02T09:57:45.086Z,10.64
2023-05-02T10:00:30.891Z,11.51
2023-05-02T10:03:16.905Z,11.00
2023-05-02T10:06:02.885Z,11.33
2023-05-02T10:08:49.359Z,11.58
2023-05-02T10:11:35.639Z,11.38
2023-05-02T10:14:21.543Z,10.72
2023-05-02T10:17:07.676Z,10.67
2023-05-02T10:19:53.561Z,10.36
2023-05-02T10:22:39.342Z,10.01
2023-05-02T10:25:25.299Z,9.48
2023-05-02T10:28:11.137Z,10.01
2023-05-02T10:30:57.016Z,10.36
2023-05-02T10:33:43.097Z,9.39
2023-05-02T10:36:28.895Z,9.60
2023-05-02T10:39:14.985Z,9.92
2023-05-02T10:42:00.905Z,9.16
2023-05-02T10:44:46.763Z,9.78
2023-05-02T10:47:32.541Z,9.54
2023-05-02T10:50:18.478Z,10.13
2023-05-02T10:53:04.363Z,10.31
2023-05-02T10:55:50.232Z,9.38
2023-05-02T10:58:36.047Z,9.88
2023-05-02T11:01:22.133Z,10.14
2023-05-02T11:04:08.584Z,10.02
2023-05-02T11:06:54.830Z,10.30
2023-05-02T11:09:40.689Z,9.64
2023-05-02T11:12:26.404Z,8.84
2023-05-02T11:15:15.475Z,9.07
2023-05-02T11:18:01.445Z,8.48
2023-05-02T11:20:47.643Z,9.55
2023-05-02T11:23:33.494Z,9.34
2023-05-02T11:26:19.428Z,9.01
2023-05-02T11:29:05.247Z,9.50
2023-05-02T11:31:51.301Z,9.49
2023-05-02T11:34:37.249Z,9.80
2023-05-02T11:37:23.173Z,9.95
2023-05-02T11:40:09.052Z,9.49
2023-05-02T11:42:54.939Z,8.98
2023-05-02T11:45:40.925Z,8.45
2023-05-02T11:48:26.875Z,7.81
2023-05-02T11:51:12.545Z,8.15
2023-05-02T11:53:58.437Z,7.66
2023-05-02T11:56:44.372Z,7.55
2023-05-02T11:59:30.324Z,7.93
2023-05-02T12:02:16.098Z,9.00
2023-05-02T12:05:02.198Z,8.36
2023-05-02T12:07:48.429Z,7.17
2023-05-02T12:10:34.199Z,7.07
2023-05-02T12:13:19.990Z,7.08
2023-05-02T12:16:05.871Z,6.97
2023-05-02T12:18:53.785Z,6.37
2023-05-02T12:21:39.570Z,6.15
2023-05-02T12:24:25.294Z,6.85
2023-05-02T12:27:11.060Z,7.46
2023-05-02T12:29:57.070Z,6.83
2023-05-02T12:32:43.093Z,6.28
2023-05-02T12:35:28.932Z,6.95
2023-05-02T12:38:14.813Z,6.62
2023-05-02T12:41:00.804Z,6.47
2023-05-02T12:43:46.559Z,6.73
2023-05-02T12:46:32.934Z,6.70
2023-05-02T12:49:18.901Z,6.55
2023-05-02T12:52:07.812Z,6.13
2023-05-02T12:54:53.610Z,6.48
2023-05-02T12:57:39.541Z,7.45
2023-05-02T13:00:25.332Z,6.94
2023-05-02T13:03:11.401Z,7.11
2023-05-02T13:05:57.537Z,7.17
2023-05-02T13:08:43.450Z,6.28
2023-05-02T13:11:29.298Z,6.99
2023-05-02T13:14:15.140Z,5.10
2023-05-02T13:17:01.171Z,6.03
2023-05-02T13:19:57.845Z,5.83
2023-05-02T13:22:46.432Z,5.98
2023-05-02T13:25:32.288Z,6.38
2023-05-02T13:28:18.164Z,6.68
2023-05-02T13:31:04.239Z,6.85
2023-05-02T13:33:50.256Z,6.68
2023-05-02T13:36:36.109Z,6.26
2023-05-02T13:39:22.073Z,6.25
2023-05-02T13:42:08.052Z,6.22
2023-05-02T13:44:53.862Z,6.20
2023-05-02T13:47:40.924Z,5.74
2023-05-02T13:50:27.378Z,6.97
2023-05-02T13:53:13.404Z,6.92
2023-05-02T13:56:01.327Z,7.68
2023-05-02T13:58:47.162Z,6.18
2023-05-02T14:01:33.084Z,6.63
2023-05-02T14:04:19.085Z,7.01
2023-05-02T14:07:05.672Z,7.15
2023-05-02T14:09:51.614Z,7.01
2023-05-02T14:12:37.485Z,7.21
2023-05-02T14:15:23.335Z,7.25
2023-05-02T14:18:09.324Z,7.15
2023-05-02T14:20:55.365Z,6.86
2023-05-02T14:23:41.494Z,6.63
2023-05-02T14:26:27.443Z,6.80
2023-05-02T14:29:13.237Z,7.39
2023-05-02T14:31:59.211Z,7.27
2023-05-02T14:34:45.158Z,7.40
2023-05-02T14:37:31.056Z,6.90
2023-05-02T14:40:17.099Z,6.65
2023-05-02T14:43:02.934Z,6.73
2023-05-02T14:45:48.755Z,7.05
2023-05-02T14:48:34.529Z,7.13
2023-05-02T14:51:20.300Z,7.04
2023-05-02T14:54:06.171Z,6.45
2023-05-02T14:56:52.072Z,6.14
2023-05-02T14:59:38.259Z,6.32
2023-05-02T15:02:24.125Z,5.52
2023-05-02T15:05:10.005Z,6.02
2023-05-02T15:07:55.913Z,6.29
2023-05-02T15:10:41.644Z,6.20
2023-05-02T15:13:27.403Z,5.61
2023-05-02T15:16:13.310Z,5.51
2023-05-02T15:18:59.204Z,6.15
2023-05-02T15:21:45.013Z,6.20
2023-05-02T15:24:30.909Z,5.73
2023-05-02T15:27:16.845Z,5.04
2023-05-02T15:30:03.437Z,4.50
2023-05-02T15:32:49.526Z,5.05
2023-05-02T15:35:35.475Z,4.95
2023-05-02T15:38:21.403Z,5.18
2023-05-02T15:41:07.282Z,4.53
2023-05-02T15:43:53.151Z,4.44
2023-05-02T15:46:39.051Z,4.20
2023-05-02T15:49:25.308Z,4.06
2023-05-02T15:52:11.252Z,4.43
2023-05-02T15:54:57.022Z,4.25
2023-05-02T15:57:42.890Z,4.37
2023-05-02T16:00:28.849Z,4.54
2023-05-02T16:03:14.653Z,4.54
2023-05-02T16:06:00.637Z,5.36
2023-05-02T16:08:46.898Z,5.05
2023-05-02T16:11:32.684Z,5.49
2023-05-02T16:14:18.751Z,5.33
2023-05-02T16:17:04.664Z,5.49
2023-05-02T16:19:50.422Z,5.17
2023-05-02T16:22:36.348Z,4.97
2023-05-02T16:25:22.285Z,4.98
2023-05-02T16:28:08.172Z,5.10
2023-05-02T16:30:53.933Z,5.13
2023-05-02T16:33:39.877Z,5.64
2023-05-02T16:36:25.849Z,6.33
2023-05-02T16:39:11.737Z,6.76
2023-05-02T16:41:57.625Z,6.78
2023-05-02T16:44:43.484Z,6.57
2023-05-02T16:47:29.397Z,6.73
2023-05-02T16:50:15.520Z,6.79
2023-05-02T16:53:01.350Z,6.36
2023-05-02T16:55:47.237Z,6.62
2023-05-02T16:58:33.146Z,6.23
2023-05-02T17:01:18.988Z,6.27
2023-05-02T17:04:05.193Z,6.03
2023-05-02T17:06:51.132Z,6.27
2023-05-02T17:09:37.470Z,6.51
2023-05-02T17:12:23.341Z,6.31
2023-05-02T17:15:09.112Z,6.60
2023-05-02T17:17:54.989Z,6.30
2023-05-02T17:20:40.915Z,6.26
2023-05-02T17:23:26.767Z,6.33
2023-05-02T17:26:12.858Z,6.55
2023-05-02T17:28:58.956Z,5.97
2023-05-02T17:31:44.876Z,6.56
2023-05-02T17:34:30.732Z,5.80
2023-05-02T17:37:16.657Z,6.18
2023-05-02T17:40:02.815Z,5.74
2023-05-02T17:42:49.312Z,6.02
2023-05-02T17:45:35.045Z,5.95
2023-05-02T17:48:20.911Z,6.06
2023-05-02T17:51:06.849Z,6.14
2023-05-02T17:53:52.824Z,6.21
2023-05-02T17:56:38.670Z,6.29
2023-05-02T17:59:24.620Z,6.36
2023-05-02T18:02:10.670Z,6.95
2023-05-02T18:04:56.613Z,7.35
2023-05-02T18:07:42.450Z,7.54
2023-05-02T18:10:28.325Z,7.64
2023-05-02T18:13:14.214Z,7.71
2023-05-02T18:16:00.230Z,7.93
2023-05-02T18:18:46.169Z,8.57
2023-05-02T18:21:31.941Z,8.69
2023-05-02T18:24:17.952Z,8.68
2023-05-02T18:27:03.844Z,9.23
2023-05-02T18:29:51.741Z,8.96
2023-05-02T18:32:37.547Z,9.68
2023-05-02T18:35:23.515Z,9.35
2023-05-02T18:38:09.370Z,9.84
2023-05-02T18:40:55.337Z,9.73
2023-05-02T18:43:41.206Z,9.80
2023-05-02T18:46:27.114Z,9.60
2023-05-02T18:49:13.185Z,9.55
2023-05-02T18:51:59.032Z,9.58
2023-05-02T18:54:45.088Z,9.39
2023-05-02T18:57:30.987Z,9.25
2023-05-02T19:00:16.900Z,9.21
2023-05-02T19:03:03.014Z,8.97
2023-05-02T19:05:49.186Z,8.88
2023-05-02T19:08:35.134Z,9.00
2023-05-02T19:11:21.005Z,8.54
2023-05-02T19:14:06.825Z,8.88
2023-05-02T19:16:52.788Z,8.05
2023-05-02T19:19:38.667Z,8.04
2023-05-02T19:22:24.446Z,8.59
2023-05-02T19:25:10.552Z,9.05
2023-05-02T19:27:56.410Z,9.07
2023-05-02T19:30:42.319Z,8.82
2023-05-02T19:33:28.269Z,8.98
2023-05-02T19:36:14.187Z,8.84
2023-05-02T19:39:00.149Z,8.84
2023-05-02T19:41:45.928Z,8.76
2023-05-02T19:44:32.032Z,8.79
2023-05-02T19:47:17.967Z,7.95
2023-05-02T19:50:03.786Z,7.63
2023-05-02T19:52:49.854Z,6.77
2023-05-02T19:55:35.876Z,6.99
2023-05-02T19:58:21.712Z,6.67
2023-05-02T20:01:07.696Z,6.51
2023-05-02T20:03:53.683Z,6.72
2023-05-02T20:06:39.968Z,6.44
2023-05-02T20:09:25.898Z,6.63
2023-05-02T20:12:13.689Z,6.52
2023-05-02T20:14:59.511Z,6.71
2023-05-02T20:17:45.710Z,6.48
2023-05-02T20:20:31.556Z,6.86
2023-05-02T20:23:17.591Z,6.75
2023-05-02T20:26:03.429Z,6.85
2023-05-02T20:28:49.362Z,7.03
2023-05-02T20:31:35.230Z,6.86
2023-05-02T20:34:23.110Z,7.12
2023-05-02T20:37:09.059Z,7.61
2023-05-02T20:39:55.066Z,7.01
2023-05-02T20:42:40.902Z,7.26
2023-05-02T20:45:26.871Z,6.93
2023-05-02T20:48:12.808Z,7.38
2023-05-02T20:50:58.722Z,7.41
2023-05-02T20:53:44.684Z,6.91
2023-05-02T20:56:30.722Z,7.23
2023-05-02T20:59:16.681Z,7.38
2023-05-02T21:02:02.800Z,7.27
2023-05-02T21:04:48.883Z,7.51
2023-05-02T21:07:34.799Z,7.11
2023-05-02T21:10:20.620Z,7.54
2023-05-02T21:13:06.420Z,7.49
2023-05-02T21:15:52.303Z,7.67
2023-05-02T21:18:38.132Z,7.33
2023-05-02T21:21:23.979Z,7.64
2023-05-02T21:24:10.036Z,7.81
2023-05-02T21:26:55.826Z,7.95
2023-05-02T21:29:41.674Z,8.09
2023-05-02T21:32:27.514Z,8.00
2023-05-02T21:35:13.416Z,8.09
2023-05-02T21:37:59.252Z,8.22
2023-05-02T21:40:45.003Z,8.23
2023-05-02T21:43:30.964Z,8.44
2023-05-02T21:46:17.004Z,8.64
2023-05-02T21:49:03.022Z,8.32
2023-05-02T21:51:49.084Z,8.58
2023-05-02T21:54:34.811Z,9.06
2023-05-02T21:57:20.808Z,8.81
2023-05-02T22:00:06.599Z,8.53
2023-05-02T22:02:52.468Z,8.46
2023-05-02T22:05:38.685Z,8.79
2023-05-02T22:08:24.537Z,9.16
2023-05-02T22:11:10.249Z,8.83
2023-05-02T22:13:56.238Z,8.79
2023-05-02T22:16:42.131Z,9.21
2023-05-02T22:19:28.106Z,9.24
2023-05-02T22:22:15.510Z,9.49
2023-05-02T22:25:01.324Z,9.14
2023-05-02T22:27:47.064Z,9.22
2023-05-02T22:30:33.080Z,9.47
2023-05-02T22:33:19.978Z,9.76
2023-05-02T22:36:05.924Z,10.16
2023-05-02T22:38:51.982Z,10.65
2023-05-02T22:41:37.889Z,11.20
2023-05-02T22:44:23.759Z,10.86
2023-05-02T22:47:09.704Z,10.68
2023-05-02T22:49:55.640Z,10.59
2023-05-02T22:52:41.432Z,11.16
2023-05-02T22:55:27.386Z,10.61
2023-05-02T22:58:13.308Z,10.64
2023-05-02T23:00:59.088Z,10.80
2023-05-02T23:03:45.078Z,10.89
2023-05-02T23:06:31.492Z,10.94
2023-05-02T23:09:17.414Z,10.88
2023-05-02T23:12:03.245Z,10.71
2023-05-02T23:14:49.045Z,11.55
2023-05-02T23:17:34.910Z,11.48
2023-05-02T23:20:20.827Z,11.22
2023-05-02T23:23:06.569Z,11.43
2023-05-02T23:25:52.405Z,11.83
2023-05-02T23:28:38.193Z,11.70
2023-05-02T23:31:23.989Z,12.57
2023-05-02T23:34:09.844Z,12.25
2023-05-02T23:36:55.736Z,12.95
2023-05-02T23:39:41.797Z,12.90
2023-05-02T23:42:27.714Z,12.79
2023-05-02T23:45:13.639Z,11.91
2023-05-02T23:47:59.634Z,12.60
2023-05-02T23:50:45.544Z,12.75
2023-05-02T23:53:31.412Z,12.37
2023-05-02T23:56:17.273Z,12.50
2023-05-02T23:59:04.993Z,12.48
